sensor_id;sensor_type;location;lat;lon;timestamp;pressure;altitude;pressure_sealevel;temperature;humidity
80414;BME280;69758;52.580;13.068;2023-08-21T00:01:51;101937.54;;;26.34;34.72
80414;BME280;69758;52.580;13.068;2023-08-21T00:04:16;101937.85;;;26.25;34.84
80414;BME280;69758;52.580;13.068;2023-08-21T00:06:41;101942.18;;;26.64;34.97
80414;BME280;69758;52.580;13.068;2023-08-21T00:09:07;101940.63;;;26.55;35.10
80414;BME280;69758;52.580;13.068;2023-08-21T00:11:32;101936.30;;;26.23;35.21
80414;BME280;69758;52.580;13.068;2023-08-21T00:13:57;101938.86;;;26.21;35.23
80414;BME280;69758;52.580;13.068;2023-08-21T00:16:22;101937.32;;;26.48;35.24
80414;BME280;69758;52.580;13.068;2023-08-21T00:18:47;101934.87;;;26.26;35.26
80414;BME280;69758;52.580;13.068;2023-08-21T00:21:12;101936.64;;;26.30;35.25
80414;BME280;69758;52.580;13.068;2023-08-21T00:23:42;101937.96;;;26.34;35.21
80414;BME280;69758;52.580;13.068;2023-08-21T00:26:02;101940.84;;;26.11;35.18
80414;BME280;69758;52.580;13.068;2023-08-21T00:28:28;101941.69;;;26.18;35.08
80414;BME280;69758;52.580;13.068;2023-08-21T00:30:59;101942.45;;;26.19;35.05
80414;BME280;69758;52.580;13.068;2023-08-21T00:33:18;101939.85;;;26.20;35.02
80414;BME280;69758;52.580;13.068;2023-08-21T00:35:43;101936.77;;;26.23;35.02
80414;BME280;69758;52.580;13.068;2023-08-21T00:38:08;101933.42;;;26.21;35.07
80414;BME280;69758;52.580;13.068;2023-08-21T00:40:33;101935.55;;;26.20;35.15
80414;BME280;69758;52.580;13.068;2023-08-21T00:42:58;101938.95;;;26.19;35.12
80414;BME280;69758;52.580;13.068;2023-08-21T00:45:23;101937.51;;;26.18;35.08
80414;BME280;69758;52.580;13.068;2023-08-21T00:47:48;101937.70;;;25.98;35.05
80414;BME280;69758;52.580;13.068;2023-08-21T00:50:13;101939.89;;;26.25;35.07
80414;BME280;69758;52.580;13.068;2023-08-21T00:52:39;101942.89;;;26.06;35.06
80414;BME280;69758;52.580;13.068;2023-08-21T00:55:03;101942.04;;;26.18;34.88
80414;BME280;69758;52.580;13.068;2023-08-21T00:57:28;101940.98;;;26.50;34.83
80414;BME280;69758;52.580;13.068;2023-08-21T00:59:53;101936.96;;;26.49;34.83
80414;BME280;69758;52.580;13.068;2023-08-21T01:02:18;101932.76;;;26.45;34.92
80414;BME280;69758;52.580;13.068;2023-08-21T01:04:44;101934.66;;;26.19;34.95
80414;BME280;69758;52.580;13.068;2023-08-21T01:07:08;101934.54;;;26.40;34.97
80414;BME280;69758;52.580;13.068;2023-08-21T01:09:36;101934.55;;;26.17;34.93
80414;BME280;69758;52.580;13.068;2023-08-21T01:12:05;101936.05;;;26.44;34.85
80414;BME280;69758;52.580;13.068;2023-08-21T01:14:28;101935.14;;;26.46;34.85
80414;BME280;69758;52.580;13.068;2023-08-21T01:16:53;101932.89;;;26.45;34.86
80414;BME280;69758;52.580;13.068;2023-08-21T01:19:30;101928.51;;;26.42;34.91
80414;BME280;69758;52.580;13.068;2023-08-21T01:21:39;101927.76;;;26.40;34.98
80414;BME280;69758;52.580;13.068;2023-08-21T01:24:04;101927.14;;;26.38;35.06
80414;BME280;69758;52.580;13.068;2023-08-21T01:26:29;101925.89;;;26.33;35.08
80414;BME280;69758;52.580;13.068;2023-08-21T01:28:54;101926.56;;;26.07;35.14
80414;BME280;69758;52.580;13.068;2023-08-21T01:31:24;101926.63;;;26.28;35.21
80414;BME280;69758;52.580;13.068;2023-08-21T01:33:47;101927.04;;;26.24;35.29
80414;BME280;69758;52.580;13.068;2023-08-21T01:36:11;101923.12;;;26.21;35.36
80414;BME280;69758;52.580;13.068;2023-08-21T01:38:35;101921.72;;;26.15;35.51
80414;BME280;69758;52.580;13.068;2023-08-21T01:41:01;101919.10;;;26.62;35.65
80414;BME280;69758;52.580;13.068;2023-08-21T01:43:26;101918.70;;;26.15;35.73
80414;BME280;69758;52.580;13.068;2023-08-21T01:45:51;101919.86;;;25.99;35.57
80414;BME280;69758;52.580;13.068;2023-08-21T01:48:16;101920.04;;;26.30;35.43
80414;BME280;69758;52.580;13.068;2023-08-21T01:50:41;101923.80;;;26.35;35.26
80414;BME280;69758;52.580;13.068;2023-08-21T01:53:06;101919.64;;;26.41;35.39
80414;BME280;69758;52.580;13.068;2023-08-21T01:55:31;101919.43;;;26.43;35.50
80414;BME280;69758;52.580;13.068;2023-08-21T01:57:56;101919.01;;;26.45;35.46
80414;BME280;69758;52.580;13.068;2023-08-21T02:00:21;101919.07;;;26.43;35.60
80414;BME280;69758;52.580;13.068;2023-08-21T02:02:46;101919.51;;;26.42;35.60
80414;BME280;69758;52.580;13.068;2023-08-21T02:05:11;101919.15;;;26.45;35.56
80414;BME280;69758;52.580;13.068;2023-08-21T02:07:36;101921.66;;;26.19;35.57
80414;BME280;69758;52.580;13.068;2023-08-21T02:10:01;101917.34;;;26.42;35.58
80414;BME280;69758;52.580;13.068;2023-08-21T02:12:26;101915.26;;;26.43;35.60
80414;BME280;69758;52.580;13.068;2023-08-21T02:14:52;101913.73;;;26.44;35.62
80414;BME280;69758;52.580;13.068;2023-08-21T02:17:16;101912.74;;;26.46;35.73
80414;BME280;69758;52.580;13.068;2023-08-21T02:19:41;101908.79;;;26.23;35.79
80414;BME280;69758;52.580;13.068;2023-08-21T02:22:06;101904.30;;;26.47;35.82
80414;BME280;69758;52.580;13.068;2023-08-21T02:24:31;101909.59;;;26.47;35.88
80414;BME280;69758;52.580;13.068;2023-08-21T02:26:57;101914.28;;;26.51;35.75
80414;BME280;69758;52.580;13.068;2023-08-21T02:29:22;101914.60;;;26.32;35.59
80414;BME280;69758;52.580;13.068;2023-08-21T02:31:46;101920.05;;;26.35;35.72
80414;BME280;69758;52.580;13.068;2023-08-21T02:34:12;101922.82;;;26.61;35.87
80414;BME280;69758;52.580;13.068;2023-08-21T02:36:37;101925.35;;;26.41;35.84
80414;BME280;69758;52.580;13.068;2023-08-21T02:39:02;101923.77;;;26.44;35.88
80414;BME280;69758;52.580;13.068;2023-08-21T02:41:27;101924.89;;;26.76;35.84
80414;BME280;69758;52.580;13.068;2023-08-21T02:43:52;101925.72;;;26.75;35.88
80414;BME280;69758;52.580;13.068;2023-08-21T02:46:17;101925.07;;;26.73;35.94
80414;BME280;69758;52.580;13.068;2023-08-21T02:48:42;101928.58;;;26.47;36.00
80414;BME280;69758;52.580;13.068;2023-08-21T02:51:07;101926.00;;;26.71;36.01
80414;BME280;69758;52.580;13.068;2023-08-21T02:53:32;101925.84;;;26.71;36.05
80414;BME280;69758;52.580;13.068;2023-08-21T02:55:58;101923.59;;;26.71;36.09
80414;BME280;69758;52.580;13.068;2023-08-21T02:58:23;101923.62;;;26.68;36.19
80414;BME280;69758;52.580;13.068;2023-08-21T03:00:48;101924.20;;;26.43;36.15
80414;BME280;69758;52.580;13.068;2023-08-21T03:03:13;101927.74;;;26.69;36.12
80414;BME280;69758;52.580;13.068;2023-08-21T03:05:38;101931.69;;;26.47;36.13
80414;BME280;69758;52.580;13.068;2023-08-21T03:08:14;101927.61;;;26.76;36.00
80414;BME280;69758;52.580;13.068;2023-08-21T03:10:29;101925.29;;;26.33;35.85
80414;BME280;69758;52.580;13.068;2023-08-21T03:12:55;101924.27;;;26.39;35.74
80414;BME280;69758;52.580;13.068;2023-08-21T03:15:19;101917.23;;;26.91;35.73
80414;BME280;69758;52.580;13.068;2023-08-21T03:17:44;101911.96;;;26.92;35.72
80414;BME280;69758;52.580;13.068;2023-08-21T03:20:11;101910.44;;;26.67;35.73
80414;BME280;69758;52.580;13.068;2023-08-21T03:22:51;101913.10;;;26.92;35.68
80414;BME280;69758;52.580;13.068;2023-08-21T03:25:00;101914.87;;;26.70;35.56
80414;BME280;69758;52.580;13.068;2023-08-21T03:27:25;101916.78;;;26.71;35.72
80414;BME280;69758;52.580;13.068;2023-08-21T03:29:51;101917.12;;;26.70;35.77
80414;BME280;69758;52.580;13.068;2023-08-21T03:32:16;101918.38;;;26.97;35.71
80414;BME280;69758;52.580;13.068;2023-08-21T03:34:41;101913.54;;;26.92;36.01
80414;BME280;69758;52.580;13.068;2023-08-21T03:39:31;101915.72;;;26.84;35.98
80414;BME280;69758;52.580;13.068;2023-08-21T03:41:56;101919.43;;;26.81;36.01
80414;BME280;69758;52.580;13.068;2023-08-21T03:44:21;101922.40;;;26.56;36.10
80414;BME280;69758;52.580;13.068;2023-08-21T03:46:46;101934.87;;;26.52;36.22
80414;BME280;69758;52.580;13.068;2023-08-21T03:49:12;101946.48;;;26.42;36.19
80414;BME280;69758;52.580;13.068;2023-08-21T03:51:37;101947.78;;;26.62;36.29
80414;BME280;69758;52.580;13.068;2023-08-21T03:54:02;101958.27;;;26.55;36.39
80414;BME280;69758;52.580;13.068;2023-08-21T03:56:28;101959.65;;;26.50;36.56
80414;BME280;69758;52.580;13.068;2023-08-21T03:58:53;101958.33;;;26.52;36.55
80414;BME280;69758;52.580;13.068;2023-08-21T04:01:18;101954.00;;;26.58;36.50
80414;BME280;69758;52.580;13.068;2023-08-21T04:03:43;101953.51;;;26.37;36.63
80414;BME280;69758;52.580;13.068;2023-08-21T04:06:08;101951.08;;;26.41;36.64
80414;BME280;69758;52.580;13.068;2023-08-21T04:08:33;101952.03;;;26.43;36.64
80414;BME280;69758;52.580;13.068;2023-08-21T04:10:58;101957.11;;;26.47;36.57
80414;BME280;69758;52.580;13.068;2023-08-21T04:13:23;101949.18;;;26.48;36.53
80414;BME280;69758;52.580;13.068;2023-08-21T04:15:48;101951.43;;;26.54;36.46
80414;BME280;69758;52.580;13.068;2023-08-21T04:18:13;101953.09;;;26.80;36.35
80414;BME280;69758;52.580;13.068;2023-08-21T04:20:39;101953.82;;;26.73;36.39
80414;BME280;69758;52.580;13.068;2023-08-21T04:23:04;101955.30;;;26.68;36.39
80414;BME280;69758;52.580;13.068;2023-08-21T04:25:29;101956.37;;;26.40;36.39
80414;BME280;69758;52.580;13.068;2023-08-21T04:27:54;101956.32;;;26.60;36.39
80414;BME280;69758;52.580;13.068;2023-08-21T04:30:19;101955.58;;;26.55;36.41
80414;BME280;69758;52.580;13.068;2023-08-21T04:32:44;101958.79;;;26.29;36.45
80414;BME280;69758;52.580;13.068;2023-08-21T04:35:09;101959.83;;;26.31;36.47
80414;BME280;69758;52.580;13.068;2023-08-21T04:37:42;101962.40;;;26.33;36.51
80414;BME280;69758;52.580;13.068;2023-08-21T04:40:00;101959.51;;;26.54;36.66
80414;BME280;69758;52.580;13.068;2023-08-21T04:42:25;101961.69;;;26.46;36.77
80414;BME280;69758;52.580;13.068;2023-08-21T04:44:51;101958.75;;;26.37;36.87
80414;BME280;69758;52.580;13.068;2023-08-21T04:47:20;101959.93;;;26.31;37.02
80414;BME280;69758;52.580;13.068;2023-08-21T04:49:40;101962.46;;;26.56;37.19
80414;BME280;69758;52.580;13.068;2023-08-21T04:52:06;101959.63;;;26.32;37.30
80414;BME280;69758;52.580;13.068;2023-08-21T04:54:36;101957.84;;;26.52;37.40
80414;BME280;69758;52.580;13.068;2023-08-21T04:56:56;101954.41;;;26.27;37.59
80414;BME280;69758;52.580;13.068;2023-08-21T04:59:21;101951.84;;;26.03;37.63
80414;BME280;69758;52.580;13.068;2023-08-21T05:01:46;101949.75;;;26.26;37.76
80414;BME280;69758;52.580;13.068;2023-08-21T05:04:11;101948.48;;;26.24;37.82
80414;BME280;69758;52.580;13.068;2023-08-21T05:06:37;101948.73;;;26.22;37.96
80414;BME280;69758;52.580;13.068;2023-08-21T05:09:01;101947.57;;;26.21;37.99
80414;BME280;69758;52.580;13.068;2023-08-21T05:11:26;101947.64;;;26.21;38.02
80414;BME280;69758;52.580;13.068;2023-08-21T05:13:51;101946.50;;;26.26;38.05
80414;BME280;69758;52.580;13.068;2023-08-21T05:16:17;101948.04;;;26.57;38.06
80414;BME280;69758;52.580;13.068;2023-08-21T05:18:42;101952.89;;;26.38;38.06
80414;BME280;69758;52.580;13.068;2023-08-21T05:21:07;101955.94;;;26.15;38.10
80414;BME280;69758;52.580;13.068;2023-08-21T05:23:32;101951.82;;;26.37;38.06
80414;BME280;69758;52.580;13.068;2023-08-21T05:25:58;101958.08;;;26.39;38.03
80414;BME280;69758;52.580;13.068;2023-08-21T05:28:23;101961.79;;;26.49;37.96
80414;BME280;69758;52.580;13.068;2023-08-21T05:30:48;101963.72;;;26.49;38.03
80414;BME280;69758;52.580;13.068;2023-08-21T05:33:13;101969.00;;;26.58;38.03
80414;BME280;69758;52.580;13.068;2023-08-21T05:35:38;101974.01;;;26.58;38.06
80414;BME280;69758;52.580;13.068;2023-08-21T05:38:03;101981.71;;;26.59;38.13
80414;BME280;69758;52.580;13.068;2023-08-21T05:40:29;101979.54;;;26.62;38.16
80414;BME280;69758;52.580;13.068;2023-08-21T05:42:59;101981.04;;;26.38;38.22
80414;BME280;69758;52.580;13.068;2023-08-21T05:45:19;101980.70;;;26.39;38.35
80414;BME280;69758;52.580;13.068;2023-08-21T05:47:45;101982.61;;;26.40;38.32
80414;BME280;69758;52.580;13.068;2023-08-21T05:50:10;101987.44;;;26.41;38.08
80414;BME280;69758;52.580;13.068;2023-08-21T05:52:35;101986.22;;;26.65;37.91
80414;BME280;69758;52.580;13.068;2023-08-21T05:55:01;101989.76;;;26.68;37.79
80414;BME280;69758;52.580;13.068;2023-08-21T05:57:26;101990.48;;;26.71;37.70
80414;BME280;69758;52.580;13.068;2023-08-21T05:59:51;101988.81;;;26.49;37.58
80414;BME280;69758;52.580;13.068;2023-08-21T06:02:16;101988.45;;;26.77;37.61
80414;BME280;69758;52.580;13.068;2023-08-21T06:04:43;101989.79;;;26.58;37.54
80414;BME280;69758;52.580;13.068;2023-08-21T06:07:07;101993.45;;;26.86;37.47
80414;BME280;69758;52.580;13.068;2023-08-21T06:09:32;101999.11;;;26.58;37.56
80414;BME280;69758;52.580;13.068;2023-08-21T06:11:57;102003.02;;;26.58;37.68
80414;BME280;69758;52.580;13.068;2023-08-21T06:14:23;102001.69;;;26.87;37.67
80414;BME280;69758;52.580;13.068;2023-08-21T06:16:48;102006.42;;;26.69;37.69
80414;BME280;69758;52.580;13.068;2023-08-21T06:19:13;102009.98;;;26.81;37.54
80414;BME280;69758;52.580;13.068;2023-08-21T06:21:38;102010.68;;;26.94;37.39
80414;BME280;69758;52.580;13.068;2023-08-21T06:24:04;102016.13;;;27.30;37.35
80414;BME280;69758;52.580;13.068;2023-08-21T06:26:29;102013.70;;;26.94;37.35
80414;BME280;69758;52.580;13.068;2023-08-21T06:28:55;102014.87;;;27.04;37.22
80414;BME280;69758;52.580;13.068;2023-08-21T06:31:20;102011.85;;;27.43;37.18
80414;BME280;69758;52.580;13.068;2023-08-21T06:33:45;102010.92;;;27.33;37.21
80414;BME280;69758;52.580;13.068;2023-08-21T06:36:11;102012.93;;;27.45;37.01
80414;BME280;69758;52.580;13.068;2023-08-21T06:38:36;102013.39;;;27.51;36.92
80414;BME280;69758;52.580;13.068;2023-08-21T06:41:01;102012.98;;;27.60;37.06
80414;BME280;69758;52.580;13.068;2023-08-21T06:43:26;102015.39;;;27.75;36.88
80414;BME280;69758;52.580;13.068;2023-08-21T06:45:51;102015.73;;;27.50;36.59
80414;BME280;69758;52.580;13.068;2023-08-21T06:48:16;102016.68;;;27.87;36.26
80414;BME280;69758;52.580;13.068;2023-08-21T06:50:42;102012.08;;;27.98;36.14
80414;BME280;69758;52.580;13.068;2023-08-21T06:53:07;102010.85;;;27.81;35.98
80414;BME280;69758;52.580;13.068;2023-08-21T06:55:32;102007.73;;;27.66;36.02
80414;BME280;69758;52.580;13.068;2023-08-21T06:57:57;102006.91;;;27.96;35.73
80414;BME280;69758;52.580;13.068;2023-08-21T07:00:22;102011.12;;;27.84;35.58
80414;BME280;69758;52.580;13.068;2023-08-21T07:02:47;102021.40;;;27.99;35.43
80414;BME280;69758;52.580;13.068;2023-08-21T07:05:12;102021.48;;;27.84;35.35
80414;BME280;69758;52.580;13.068;2023-08-21T07:07:37;102020.42;;;27.97;34.65
80414;BME280;69758;52.580;13.068;2023-08-21T07:10:03;102020.49;;;27.81;34.34
80414;BME280;69758;52.580;13.068;2023-08-21T07:12:28;102022.32;;;27.86;34.23
80414;BME280;69758;52.580;13.068;2023-08-21T07:14:53;102024.88;;;28.12;34.23
80414;BME280;69758;52.580;13.068;2023-08-21T07:17:19;102026.42;;;28.01;33.84
80414;BME280;69758;52.580;13.068;2023-08-21T07:19:45;102026.74;;;27.93;34.05
80414;BME280;69758;52.580;13.068;2023-08-21T07:22:11;102024.90;;;28.16;33.76
80414;BME280;69758;52.580;13.068;2023-08-21T07:24:37;102026.94;;;27.87;32.73
80414;BME280;69758;52.580;13.068;2023-08-21T07:27:03;102020.49;;;28.01;32.63
80414;BME280;69758;52.580;13.068;2023-08-21T07:29:29;102021.61;;;28.40;32.20
80414;BME280;69758;52.580;13.068;2023-08-21T07:31:54;102027.82;;;28.37;32.09
80414;BME280;69758;52.580;13.068;2023-08-21T07:34:20;102027.59;;;28.15;31.62
80414;BME280;69758;52.580;13.068;2023-08-21T07:36:46;102027.04;;;28.11;30.83
80414;BME280;69758;52.580;13.068;2023-08-21T07:39:12;102025.98;;;28.23;30.75
80414;BME280;69758;52.580;13.068;2023-08-21T07:41:38;102025.89;;;28.43;30.57
80414;BME280;69758;52.580;13.068;2023-08-21T07:44:04;102021.43;;;28.55;29.13
80414;BME280;69758;52.580;13.068;2023-08-21T07:46:29;102020.54;;;28.52;28.16
80414;BME280;69758;52.580;13.068;2023-08-21T07:48:55;102029.63;;;28.24;28.79
80414;BME280;69758;52.580;13.068;2023-08-21T07:51:21;102034.98;;;28.38;27.62
80414;BME280;69758;52.580;13.068;2023-08-21T07:53:47;102032.70;;;28.09;27.63
80414;BME280;69758;52.580;13.068;2023-08-21T07:56:13;102032.40;;;27.87;28.20
80414;BME280;69758;52.580;13.068;2023-08-21T07:58:38;102033.87;;;27.99;27.90
80414;BME280;69758;52.580;13.068;2023-08-21T08:01:04;102026.89;;;28.14;27.66
80414;BME280;69758;52.580;13.068;2023-08-21T08:03:30;102026.02;;;28.10;26.81
80414;BME280;69758;52.580;13.068;2023-08-21T08:05:56;102028.74;;;28.65;27.33
80414;BME280;69758;52.580;13.068;2023-08-21T08:08:22;102032.30;;;28.61;27.08
80414;BME280;69758;52.580;13.068;2023-08-21T08:10:48;102029.89;;;29.06;26.52
80414;BME280;69758;52.580;13.068;2023-08-21T08:13:13;102028.37;;;28.90;27.25
80414;BME280;69758;52.580;13.068;2023-08-21T08:15:39;102028.67;;;29.08;26.70
80414;BME280;69758;52.580;13.068;2023-08-21T08:18:10;102024.22;;;29.22;25.78
80414;BME280;69758;52.580;13.068;2023-08-21T08:20:31;102022.11;;;28.91;25.93
80414;BME280;69758;52.580;13.068;2023-08-21T08:22:57;102021.29;;;28.66;25.06
80414;BME280;69758;52.580;13.068;2023-08-21T08:25:23;102021.14;;;28.53;25.16
80414;BME280;69758;52.580;13.068;2023-08-21T08:27:49;102022.14;;;28.57;25.42
80414;BME280;69758;52.580;13.068;2023-08-21T08:30:15;102025.90;;;28.98;25.62
80414;BME280;69758;52.580;13.068;2023-08-21T08:32:42;102023.38;;;29.23;24.83
80414;BME280;69758;52.580;13.068;2023-08-21T08:35:06;102028.77;;;29.35;24.96
80414;BME280;69758;52.580;13.068;2023-08-21T08:37:32;102025.38;;;29.23;24.13
80414;BME280;69758;52.580;13.068;2023-08-21T08:39:57;102028.88;;;29.32;24.17
80414;BME280;69758;52.580;13.068;2023-08-21T08:42:23;102030.35;;;29.09;23.00
80414;BME280;69758;52.580;13.068;2023-08-21T08:44:49;102031.23;;;29.24;22.82
80414;BME280;69758;52.580;13.068;2023-08-21T08:47:15;102030.99;;;29.46;22.79
80414;BME280;69758;52.580;13.068;2023-08-21T08:49:41;102034.72;;;29.24;22.60
80414;BME280;69758;52.580;13.068;2023-08-21T08:52:07;102031.39;;;29.51;22.96
80414;BME280;69758;52.580;13.068;2023-08-21T08:54:33;102032.18;;;29.68;23.69
80414;BME280;69758;52.580;13.068;2023-08-21T08:56:58;102036.18;;;29.42;23.21
80414;BME280;69758;52.580;13.068;2023-08-21T08:59:24;102039.86;;;29.34;23.94
80414;BME280;69758;52.580;13.068;2023-08-21T09:01:50;102037.83;;;29.32;23.80
80414;BME280;69758;52.580;13.068;2023-08-21T09:04:16;102036.57;;;29.59;23.94
80414;BME280;69758;52.580;13.068;2023-08-21T09:06:41;102037.56;;;29.51;24.23
80414;BME280;69758;52.580;13.068;2023-08-21T09:09:08;102037.71;;;29.02;24.55
80414;BME280;69758;52.580;13.068;2023-08-21T09:11:33;102039.57;;;29.20;24.48
80414;BME280;69758;52.580;13.068;2023-08-21T09:13:59;102039.96;;;29.49;24.50
80414;BME280;69758;52.580;13.068;2023-08-21T09:16:25;102034.58;;;29.20;24.83
80414;BME280;69758;52.580;13.068;2023-08-21T09:18:52;102037.18;;;29.26;23.92
80414;BME280;69758;52.580;13.068;2023-08-21T09:21:17;102034.93;;;29.21;23.97
80414;BME280;69758;52.580;13.068;2023-08-21T09:23:42;102033.46;;;29.44;24.38
80414;BME280;69758;52.580;13.068;2023-08-21T09:26:08;102029.67;;;29.62;23.52
80414;BME280;69758;52.580;13.068;2023-08-21T09:28:34;102030.03;;;29.65;23.47
80414;BME280;69758;52.580;13.068;2023-08-21T09:30:59;102030.75;;;29.28;23.46
80414;BME280;69758;52.580;13.068;2023-08-21T09:33:25;102027.04;;;29.58;23.69
80414;BME280;69758;52.580;13.068;2023-08-21T09:35:52;102024.02;;;29.99;23.89
80414;BME280;69758;52.580;13.068;2023-08-21T09:38:17;102026.93;;;30.02;23.31
80414;BME280;69758;52.580;13.068;2023-08-21T09:40:49;102026.86;;;29.82;23.65
80414;BME280;69758;52.580;13.068;2023-08-21T09:43:09;102026.52;;;30.19;23.36
80414;BME280;69758;52.580;13.068;2023-08-21T09:45:34;102024.39;;;30.19;23.16
80414;BME280;69758;52.580;13.068;2023-08-21T09:48:00;102017.38;;;29.81;24.00
80414;BME280;69758;52.580;13.068;2023-08-21T09:50:26;102018.95;;;30.08;23.58
80414;BME280;69758;52.580;13.068;2023-08-21T09:52:52;102022.63;;;30.28;23.14
80414;BME280;69758;52.580;13.068;2023-08-21T09:55:17;102020.74;;;30.10;22.41
80414;BME280;69758;52.580;13.068;2023-08-21T09:57:45;102024.01;;;30.32;22.73
80414;BME280;69758;52.580;13.068;2023-08-21T10:00:10;102020.61;;;30.26;22.38
80414;BME280;69758;52.580;13.068;2023-08-21T10:02:35;102018.42;;;30.92;22.98
80414;BME280;69758;52.580;13.068;2023-08-21T10:05:01;102015.21;;;30.97;23.00
80414;BME280;69758;52.580;13.068;2023-08-21T10:07:28;102010.52;;;31.01;22.79
80414;BME280;69758;52.580;13.068;2023-08-21T10:09:52;102008.45;;;30.86;23.47
80414;BME280;69758;52.580;13.068;2023-08-21T10:12:18;102002.97;;;31.57;23.41
80414;BME280;69758;52.580;13.068;2023-08-21T10:14:44;102009.64;;;31.05;22.45
80414;BME280;69758;52.580;13.068;2023-08-21T10:17:10;102011.92;;;31.06;22.11
80414;BME280;69758;52.580;13.068;2023-08-21T10:19:36;102014.08;;;30.79;22.16
80414;BME280;69758;52.580;13.068;2023-08-21T10:22:01;102010.11;;;31.29;22.94
80414;BME280;69758;52.580;13.068;2023-08-21T10:24:28;102010.61;;;30.99;22.54
80414;BME280;69758;52.580;13.068;2023-08-21T10:26:52;102006.69;;;31.22;23.17
80414;BME280;69758;52.580;13.068;2023-08-21T10:29:18;102008.66;;;31.42;23.47
80414;BME280;69758;52.580;13.068;2023-08-21T10:31:45;102011.11;;;31.17;22.81
80414;BME280;69758;52.580;13.068;2023-08-21T10:34:11;102007.51;;;31.42;22.77
80414;BME280;69758;52.580;13.068;2023-08-21T10:36:38;102010.36;;;31.37;22.45
80414;BME280;69758;52.580;13.068;2023-08-21T10:39:02;102015.51;;;30.89;22.21
80414;BME280;69758;52.580;13.068;2023-08-21T10:41:27;102021.61;;;31.00;22.10
80414;BME280;69758;52.580;13.068;2023-08-21T10:43:53;102018.14;;;30.76;22.56
80414;BME280;69758;52.580;13.068;2023-08-21T10:46:19;102018.63;;;31.17;22.51
80414;BME280;69758;52.580;13.068;2023-08-21T10:48:45;102020.59;;;30.46;22.65
80414;BME280;69758;52.580;13.068;2023-08-21T10:51:10;102025.38;;;30.66;22.45
80414;BME280;69758;52.580;13.068;2023-08-21T10:53:36;102026.64;;;30.88;22.53
80414;BME280;69758;52.580;13.068;2023-08-21T10:56:02;102026.64;;;31.10;22.02
80414;BME280;69758;52.580;13.068;2023-08-21T10:58:29;102025.76;;;31.03;22.43
80414;BME280;69758;52.580;13.068;2023-08-21T11:00:56;102024.37;;;30.74;22.36
80414;BME280;69758;52.580;13.068;2023-08-21T11:03:18;102026.46;;;31.30;22.15
80414;BME280;69758;52.580;13.068;2023-08-21T11:05:45;102030.62;;;31.37;21.87
80414;BME280;69758;52.580;13.068;2023-08-21T11:08:10;102028.50;;;31.20;20.94
80414;BME280;69758;52.580;13.068;2023-08-21T11:10:36;102030.72;;;30.99;20.99
80414;BME280;69758;52.580;13.068;2023-08-21T11:13:02;102025.50;;;30.82;21.60
80414;BME280;69758;52.580;13.068;2023-08-21T11:15:28;102024.31;;;31.25;22.06
80414;BME280;69758;52.580;13.068;2023-08-21T11:17:54;102021.10;;;30.83;22.02
80414;BME280;69758;52.580;13.068;2023-08-21T11:20:19;102021.64;;;31.25;22.46
80414;BME280;69758;52.580;13.068;2023-08-21T11:22:46;102021.95;;;31.44;22.70
80414;BME280;69758;52.580;13.068;2023-08-21T11:25:10;102023.58;;;30.95;22.44
80414;BME280;69758;52.580;13.068;2023-08-21T11:27:37;102022.04;;;31.24;22.24
80414;BME280;69758;52.580;13.068;2023-08-21T11:30:02;102022.45;;;31.18;22.61
80414;BME280;69758;52.580;13.068;2023-08-21T11:32:28;102022.42;;;30.86;22.23
80414;BME280;69758;52.580;13.068;2023-08-21T11:34:55;102018.76;;;31.01;22.28
80414;BME280;69758;52.580;13.068;2023-08-21T11:37:21;102016.01;;;31.37;21.67
80414;BME280;69758;52.580;13.068;2023-08-21T11:39:47;102016.16;;;31.30;22.30
80414;BME280;69758;52.580;13.068;2023-08-21T11:42:12;102016.58;;;31.13;22.05
80414;BME280;69758;52.580;13.068;2023-08-21T11:44:42;102016.70;;;31.59;22.26
80414;BME280;69758;52.580;13.068;2023-08-21T11:47:02;102016.92;;;30.75;22.73
80414;BME280;69758;52.580;13.068;2023-08-21T11:49:29;102014.92;;;30.97;23.42
80414;BME280;69758;52.580;13.068;2023-08-21T11:51:54;102015.38;;;30.85;22.76
80414;BME280;69758;52.580;13.068;2023-08-21T11:54:19;102013.39;;;31.13;22.91
80414;BME280;69758;52.580;13.068;2023-08-21T11:56:47;102015.33;;;31.06;22.91
80414;BME280;69758;52.580;13.068;2023-08-21T11:59:11;102012.77;;;30.92;23.27
80414;BME280;69758;52.580;13.068;2023-08-21T12:01:36;102012.24;;;31.16;23.80
80414;BME280;69758;52.580;13.068;2023-08-21T12:06:28;102014.31;;;31.39;23.16
80414;BME280;69758;52.580;13.068;2023-08-21T12:08:54;102020.85;;;31.36;22.11
80414;BME280;69758;52.580;13.068;2023-08-21T12:11:20;102027.14;;;30.47;22.36
80414;BME280;69758;52.580;13.068;2023-08-21T12:13:45;102021.15;;;30.17;22.46
80414;BME280;69758;52.580;13.068;2023-08-21T12:16:11;102017.11;;;30.83;22.70
80414;BME280;69758;52.580;13.068;2023-08-21T12:18:37;102015.95;;;30.98;21.98
80414;BME280;69758;52.580;13.068;2023-08-21T12:21:03;102017.31;;;31.14;22.02
80414;BME280;69758;52.580;13.068;2023-08-21T12:23:28;102016.21;;;31.17;22.27
80414;BME280;69758;52.580;13.068;2023-08-21T12:25:54;102012.60;;;31.43;22.40
80414;BME280;69758;52.580;13.068;2023-08-21T12:28:20;102012.96;;;31.34;21.70
80414;BME280;69758;52.580;13.068;2023-08-21T12:30:46;102009.91;;;31.19;21.63
80414;BME280;69758;52.580;13.068;2023-08-21T12:33:12;102011.41;;;31.56;22.16
80414;BME280;69758;52.580;13.068;2023-08-21T12:35:37;102012.31;;;31.75;21.38